sensor_id;sensor_type;location;lat;lon;timestamp;temperature;humidity
15409;DHT22;7803;48.130;13.788;2022-12-18T20:02:12;24.00;67.20
15409;DHT22;7803;48.130;13.788;2022-12-18T20:05:15;24.00;67.20
15409;DHT22;7803;48.130;13.788;2022-12-18T20:08:24;24.00;67.20
15409;DHT22;7803;48.130;13.788;2022-12-18T20:11:30;24.00;67.20
15409;DHT22;7803;48.130;13.788;2022-12-18T20:14:32;24.00;67.20
15409;DHT22;7803;48.130;13.788;2022-12-18T20:17:37;24.00;67.50
15409;DHT22;7803;48.130;13.788;2022-12-18T20:20:40;24.00;67.70
15409;DHT22;7803;48.130;13.788;2022-12-18T20:23:43;24.10;68.10
15409;DHT22;7803;48.130;13.788;2022-12-18T20:26:46;24.00;68.40
15409;DHT22;7803;48.130;13.788;2022-12-18T20:29:49;24.10;68.60
15409;DHT22;7803;48.130;13.788;2022-12-18T20:32:52;24.10;68.80
15409;DHT22;7803;48.130;13.788;2022-12-18T20:35:59;24.00;68.70
15409;DHT22;7803;48.130;13.788;2022-12-18T20:39:04;24.10;68.80
15409;DHT22;7803;48.130;13.788;2022-12-18T20:42:08;24.00;68.60
15409;DHT22;7803;48.130;13.788;2022-12-18T20:45:11;24.00;68.50
15409;DHT22;7803;48.130;13.788;2022-12-18T20:48:15;24.10;69.10
15409;DHT22;7803;48.130;13.788;2022-12-18T20:51:19;24.10;68.30
15409;DHT22;7803;48.130;13.788;2022-12-18T20:54:24;24.10;68.30
15409;DHT22;7803;48.130;13.788;2022-12-18T20:57:26;24.10;68.10
15409;DHT22;7803;48.130;13.788;2022-12-18T21:00:28;24.10;67.80
15409;DHT22;7803;48.130;13.788;2022-12-18T21:03:32;24.10;67.90
15409;DHT22;7803;48.130;13.788;2022-12-18T21:06:35;24.10;67.70
15409;DHT22;7803;48.130;13.788;2022-12-18T21:09:38;24.10;67.70
15409;DHT22;7803;48.130;13.788;2022-12-18T21:12:40;24.10;67.70
15409;DHT22;7803;48.130;13.788;2022-12-18T21:15:46;24.10;67.70
15409;DHT22;7803;48.130;13.788;2022-12-18T21:18:50;24.10;67.60
15409;DHT22;7803;48.130;13.788;2022-12-18T21:21:53;24.10;67.60
15409;DHT22;7803;48.130;13.788;2022-12-18T21:24:56;24.10;67.60
15409;DHT22;7803;48.130;13.788;2022-12-18T21:27:58;24.10;67.60
15409;DHT22;7803;48.130;13.788;2022-12-18T21:31:00;24.10;67.60
15409;DHT22;7803;48.130;13.788;2022-12-18T21:34:04;24.10;67.60
15409;DHT22;7803;48.130;13.788;2022-12-18T21:37:07;24.10;67.50
15409;DHT22;7803;48.130;13.788;2022-12-18T21:40:10;24.10;67.50
15409;DHT22;7803;48.130;13.788;2022-12-18T21:43:12;24.10;67.50
15409;DHT22;7803;48.130;13.788;2022-12-18T21:46:32;24.10;67.50
15409;DHT22;7803;48.130;13.788;2022-12-18T21:49:35;24.10;67.50
15409;DHT22;7803;48.130;13.788;2022-12-18T21:52:37;24.10;67.40
15409;DHT22;7803;48.130;13.788;2022-12-18T21:55:39;24.10;67.40
15409;DHT22;7803;48.130;13.788;2022-12-18T21:58:41;24.10;67.50
15409;DHT22;7803;48.130;13.788;2022-12-18T22:01:43;24.10;66.70
15409;DHT22;7803;48.130;13.788;2022-12-18T22:04:47;24.00;65.50
15409;DHT22;7803;48.130;13.788;2022-12-18T22:07:49;24.00;66.20
15409;DHT22;7803;48.130;13.788;2022-12-18T22:10:51;24.00;66.60
15409;DHT22;7803;48.130;13.788;2022-12-18T22:13:53;24.00;66.80
15409;DHT22;7803;48.130;13.788;2022-12-18T22:16:55;24.00;66.90
15409;DHT22;7803;48.130;13.788;2022-12-18T22:19:59;24.00;67.00
15409;DHT22;7803;48.130;13.788;2022-12-18T22:23:01;24.00;67.10
15409;DHT22;7803;48.130;13.788;2022-12-18T22:26:03;24.00;67.10
15409;DHT22;7803;48.130;13.788;2022-12-18T22:29:05;24.00;67.10
15409;DHT22;7803;48.130;13.788;2022-12-18T22:32:24;24.00;67.10
15409;DHT22;7803;48.130;13.788;2022-12-18T22:35:28;24.00;67.10
15409;DHT22;7803;48.130;13.788;2022-12-18T22:38:30;24.00;67.10
15409;DHT22;7803;48.130;13.788;2022-12-18T22:41:32;24.00;67.10
15409;DHT22;7803;48.130;13.788;2022-12-18T22:44:35;24.00;67.10
15409;DHT22;7803;48.130;13.788;2022-12-18T22:47:37;24.00;67.10
15409;DHT22;7803;48.130;13.788;2022-12-18T22:50:40;24.00;67.10
15409;DHT22;7803;48.130;13.788;2022-12-18T22:53:43;24.00;67.10
15409;DHT22;7803;48.130;13.788;2022-12-18T22:56:45;24.00;67.00
15409;DHT22;7803;48.130;13.788;2022-12-18T22:59:47;24.00;66.20
15409;DHT22;7803;48.130;13.788;2022-12-18T23:02:49;23.90;66.20
15409;DHT22;7803;48.130;13.788;2022-12-18T23:05:52;23.90;66.60
15409;DHT22;7803;48.130;13.788;2022-12-18T23:09:02;24.00;66.80
15409;DHT22;7803;48.130;13.788;2022-12-18T23:12:04;23.90;66.80
15409;DHT22;7803;48.130;13.788;2022-12-18T23:15:07;23.90;66.90
15409;DHT22;7803;48.130;13.788;2022-12-18T23:18:09;23.90;67.00
15409;DHT22;7803;48.130;13.788;2022-12-18T23:21:14;23.90;67.00
15409;DHT22;7803;48.130;13.788;2022-12-18T23:24:16;23.90;67.00
15409;DHT22;7803;48.130;13.788;2022-12-18T23:27:18;23.90;67.00
15409;DHT22;7803;48.130;13.788;2022-12-18T23:30:20;23.90;67.00
15409;DHT22;7803;48.130;13.788;2022-12-18T23:33:23;23.90;67.00
15409;DHT22;7803;48.130;13.788;2022-12-18T23:36:26;23.90;67.00
15409;DHT22;7803;48.130;13.788;2022-12-18T23:39:28;23.90;67.00
15409;DHT22;7803;48.130;13.788;2022-12-18T23:42:30;23.90;67.00
15409;DHT22;7803;48.130;13.788;2022-12-18T23:45:36;23.90;67.00
15409;DHT22;7803;48.130;13.788;2022-12-18T23:48:38;23.90;67.00
15409;DHT22;7803;48.130;13.788;2022-12-18T23:51:42;23.90;66.90
15409;DHT22;7803;48.130;13.788;2022-12-18T23:54:44;23.90;66.90
15409;DHT22;7803;48.130;13.788;2022-12-18T23:57:46;23.90;66.90
